sensor_id;sensor_type;location;lat;lon;timestamp;P1;durP1;ratioP1;P2;durP2;ratioP2
68319;SDS011;55168;51.120;17.024;2023-02-23T00:00:00;26.2;;;15.9;;
68319;SDS011;55168;51.120;17.024;2023-02-23T00:01:00;26.2;;;15.9;;
68319;SDS011;55168;51.120;17.024;2023-02-23T00:02:00;26.2;;;15.9;;
68319;SDS011;55168;51.120;17.024;2023-02-23T00:03:00;26.2;;;15.9;;
68319;SDS011;55168;51.120;17.024;2023-02-23T00:04:00;26.2;;;15.9;;
68319;SDS011;55168;51.120;17.024;2023-02-23T00:05:00;29.5;;;16.3;;
68319;SDS011;55168;51.120;17.024;2023-02-23T00:06:02;29.5;;;16.3;;
68319;SDS011;55168;51.120;17.024;2023-02-23T00:07:00;29.5;;;16.3;;
68319;SDS011;55168;51.120;17.024;2023-02-23T00:08:00;29.5;;;16.3;;
68319;SDS011;55168;51.120;17.024;2023-02-23T00:09:01;29.5;;;16.3;;
68319;SDS011;55168;51.120;17.024;2023-02-23T00:10:00;30.5;;;17.4;;
68319;SDS011;55168;51.120;17.024;2023-02-23T00:11:00;30.5;;;17.4;;
68319;SDS011;55168;51.120;17.024;2023-02-23T00:12:01;30.5;;;17.4;;
68319;SDS011;55168;51.120;17.024;2023-02-23T00:13:00;30.5;;;17.4;;
68319;SDS011;55168;51.120;17.024;2023-02-23T00:14:00;30.5;;;17.4;;
68319;SDS011;55168;51.120;17.024;2023-02-23T00:15:00;32.9;;;17.4;;
68319;SDS011;55168;51.120;17.024;2023-02-23T00:16:02;32.9;;;17.4;;
68319;SDS011;55168;51.120;17.024;2023-02-23T00:17:00;32.9;;;17.4;;
68319;SDS011;55168;51.120;17.024;2023-02-23T00:18:00;32.9;;;17.4;;
68319;SDS011;55168;51.120;17.024;2023-02-23T00:19:00;32.9;;;17.4;;
68319;SDS011;55168;51.120;17.024;2023-02-23T00:20:00;26.7;;;16.4;;
68319;SDS011;55168;51.120;17.024;2023-02-23T00:21:00;26.7;;;16.4;;
68319;SDS011;55168;51.120;17.024;2023-02-23T00:22:00;26.7;;;16.4;;
68319;SDS011;55168;51.120;17.024;2023-02-23T00:23:00;26.7;;;16.4;;
68319;SDS011;55168;51.120;17.024;2023-02-23T00:24:02;26.7;;;16.4;;
68319;SDS011;55168;51.120;17.024;2023-02-23T00:25:00;29.5;;;17.6;;
68319;SDS011;55168;51.120;17.024;2023-02-23T00:26:02;29.5;;;17.6;;
68319;SDS011;55168;51.120;17.024;2023-02-23T00:27:00;29.5;;;17.6;;
68319;SDS011;55168;51.120;17.024;2023-02-23T00:28:00;29.5;;;17.6;;
68319;SDS011;55168;51.120;17.024;2023-02-23T00:29:05;29.5;;;17.6;;
68319;SDS011;55168;51.120;17.024;2023-02-23T00:30:00;30.7;;;18.6;;
68319;SDS011;55168;51.120;17.024;2023-02-23T00:31:01;30.7;;;18.6;;
68319;SDS011;55168;51.120;17.024;2023-02-23T00:32:00;30.7;;;18.6;;
68319;SDS011;55168;51.120;17.024;2023-02-23T00:33:00;30.7;;;18.6;;
68319;SDS011;55168;51.120;17.024;2023-02-23T00:34:01;30.7;;;18.6;;
68319;SDS011;55168;51.120;17.024;2023-02-23T00:35:00;29.0;;;17.9;;
68319;SDS011;55168;51.120;17.024;2023-02-23T00:36:02;29.0;;;17.9;;
68319;SDS011;55168;51.120;17.024;2023-02-23T00:37:00;29.0;;;17.9;;
68319;SDS011;55168;51.120;17.024;2023-02-23T00:38:00;29.0;;;17.9;;
68319;SDS011;55168;51.120;17.024;2023-02-23T00:39:03;29.0;;;17.9;;
68319;SDS011;55168;51.120;17.024;2023-02-23T00:40:00;28.0;;;17.1;;
68319;SDS011;55168;51.120;17.024;2023-02-23T00:41:05;28.0;;;17.1;;
68319;SDS011;55168;51.120;17.024;2023-02-23T00:42:00;28.0;;;17.1;;
68319;SDS011;55168;51.120;17.024;2023-02-23T00:43:00;28.0;;;17.1;;
68319;SDS011;55168;51.120;17.024;2023-02-23T00:44:00;28.0;;;17.1;;
68319;SDS011;55168;51.120;17.024;2023-02-23T00:45:00;27.5;;;16.8;;
68319;SDS011;55168;51.120;17.024;2023-02-23T00:46:00;27.5;;;16.8;;
68319;SDS011;55168;51.120;17.024;2023-02-23T00:47:01;27.5;;;16.8;;
68319;SDS011;55168;51.120;17.024;2023-02-23T00:48:00;27.5;;;16.8;;
68319;SDS011;55168;51.120;17.024;2023-02-23T00:49:00;27.5;;;16.8;;
68319;SDS011;55168;51.120;17.024;2023-02-23T00:50:00;27.2;;;16.7;;
68319;SDS011;55168;51.120;17.024;2023-02-23T00:51:01;27.2;;;16.7;;
68319;SDS011;55168;51.120;17.024;2023-02-23T00:52:00;27.2;;;16.7;;
68319;SDS011;55168;51.120;17.024;2023-02-23T00:53:00;27.2;;;16.7;;
68319;SDS011;55168;51.120;17.024;2023-02-23T00:54:00;27.2;;;16.7;;
68319;SDS011;55168;51.120;17.024;2023-02-23T00:55:00;29.9;;;16.9;;
68319;SDS011;55168;51.120;17.024;2023-02-23T00:56:03;29.9;;;16.9;;
68319;SDS011;55168;51.120;17.024;2023-02-23T00:57:00;29.9;;;16.9;;
68319;SDS011;55168;51.120;17.024;2023-02-23T00:58:00;29.9;;;16.9;;
68319;SDS011;55168;51.120;17.024;2023-02-23T00:59:00;29.9;;;16.9;;
68319;SDS011;55168;51.120;17.024;2023-02-23T01:00:00;21.9;;;13.7;;
68319;SDS011;55168;51.120;17.024;2023-02-23T01:01:00;21.9;;;13.7;;
68319;SDS011;55168;51.120;17.024;2023-02-23T01:02:00;21.9;;;13.7;;
68319;SDS011;55168;51.120;17.024;2023-02-23T01:03:00;21.9;;;13.7;;
68319;SDS011;55168;51.120;17.024;2023-02-23T01:04:00;21.9;;;13.7;;
68319;SDS011;55168;51.120;17.024;2023-02-23T01:05:00;26.9;;;15.8;;
68319;SDS011;55168;51.120;17.024;2023-02-23T01:06:01;26.9;;;15.8;;
68319;SDS011;55168;51.120;17.024;2023-02-23T01:07:00;26.9;;;15.8;;
68319;SDS011;55168;51.120;17.024;2023-02-23T01:08:00;26.9;;;15.8;;
68319;SDS011;55168;51.120;17.024;2023-02-23T01:09:00;26.9;;;15.8;;
68319;SDS011;55168;51.120;17.024;2023-02-23T01:10:00;28.6;;;16.8;;
68319;SDS011;55168;51.120;17.024;2023-02-23T01:11:11;28.6;;;16.8;;
68319;SDS011;55168;51.120;17.024;2023-02-23T01:12:00;28.6;;;16.8;;
68319;SDS011;55168;51.120;17.024;2023-02-23T01:13:00;28.6;;;16.8;;
68319;SDS011;55168;51.120;17.024;2023-02-23T01:14:00;28.6;;;16.8;;
68319;SDS011;55168;51.120;17.024;2023-02-23T01:15:00;27.6;;;16.8;;
68319;SDS011;55168;51.120;17.024;2023-02-23T01:16:04;27.6;;;16.8;;
68319;SDS011;55168;51.120;17.024;2023-02-23T01:17:00;27.6;;;16.8;;
68319;SDS011;55168;51.120;17.024;2023-02-23T01:18:00;27.6;;;16.8;;
68319;SDS011;55168;51.120;17.024;2023-02-23T01:19:03;27.6;;;16.8;;
68319;SDS011;55168;51.120;17.024;2023-02-23T01:20:00;32.7;;;17.7;;
68319;SDS011;55168;51.120;17.024;2023-02-23T01:21:01;32.7;;;17.7;;
68319;SDS011;55168;51.120;17.024;2023-02-23T01:22:00;32.7;;;17.7;;
68319;SDS011;55168;51.120;17.024;2023-02-23T01:23:01;32.7;;;17.7;;
68319;SDS011;55168;51.120;17.024;2023-02-23T01:24:00;32.7;;;17.7;;
68319;SDS011;55168;51.120;17.024;2023-02-23T01:25:00;26.6;;;15.6;;
68319;SDS011;55168;51.120;17.024;2023-02-23T01:26:00;26.6;;;15.6;;
68319;SDS011;55168;51.120;17.024;2023-02-23T01:27:00;26.6;;;15.6;;
68319;SDS011;55168;51.120;17.024;2023-02-23T01:28:00;26.6;;;15.6;;
68319;SDS011;55168;51.120;17.024;2023-02-23T01:29:03;28.8;;;16.5;;
68319;SDS011;55168;51.120;17.024;2023-02-23T01:30:00;28.8;;;16.5;;
68319;SDS011;55168;51.120;17.024;2023-02-23T01:31:00;28.8;;;16.5;;
68319;SDS011;55168;51.120;17.024;2023-02-23T01:32:00;28.8;;;16.5;;
68319;SDS011;55168;51.120;17.024;2023-02-23T01:33:00;28.8;;;16.5;;
68319;SDS011;55168;51.120;17.024;2023-02-23T01:34:01;31.4;;;17.0;;
68319;SDS011;55168;51.120;17.024;2023-02-23T01:35:00;31.4;;;17.0;;
68319;SDS011;55168;51.120;17.024;2023-02-23T01:36:00;31.4;;;17.0;;
68319;SDS011;55168;51.120;17.024;2023-02-23T01:37:00;31.4;;;17.0;;
68319;SDS011;55168;51.120;17.024;2023-02-23T01:38:00;31.4;;;17.0;;
68319;SDS011;55168;51.120;17.024;2023-02-23T01:39:00;30.5;;;18.1;;
68319;SDS011;55168;51.120;17.024;2023-02-23T01:40:01;30.5;;;18.1;;
68319;SDS011;55168;51.120;17.024;2023-02-23T01:41:00;30.5;;;18.1;;
68319;SDS011;55168;51.120;17.024;2023-02-23T01:42:00;30.5;;;18.1;;
68319;SDS011;55168;51.120;17.024;2023-02-23T01:43:12;30.5;;;18.1;;
68319;SDS011;55168;51.120;17.024;2023-02-23T01:44:03;32.0;;;16.3;;
68319;SDS011;55168;51.120;17.024;2023-02-23T01:45:27;32.0;;;16.3;;
68319;SDS011;55168;51.120;17.024;2023-02-23T01:46:00;32.0;;;16.3;;
68319;SDS011;55168;51.120;17.024;2023-02-23T01:47:00;32.0;;;16.3;;
68319;SDS011;55168;51.120;17.024;2023-02-23T01:48:04;32.0;;;16.3;;
68319;SDS011;55168;51.120;17.024;2023-02-23T01:49:01;28.7;;;17.3;;
68319;SDS011;55168;51.120;17.024;2023-02-23T01:50:00;28.7;;;17.3;;
68319;SDS011;55168;51.120;17.024;2023-02-23T01:51:04;28.7;;;17.3;;
68319;SDS011;55168;51.120;17.024;2023-02-23T01:52:04;28.7;;;17.3;;
68319;SDS011;55168;51.120;17.024;2023-02-23T01:53:00;28.7;;;17.3;;
68319;SDS011;55168;51.120;17.024;2023-02-23T01:54:06;29.3;;;17.3;;
68319;SDS011;55168;51.120;17.024;2023-02-23T01:55:00;29.3;;;17.3;;
68319;SDS011;55168;51.120;17.024;2023-02-23T01:56:05;29.3;;;17.3;;
68319;SDS011;55168;51.120;17.024;2023-02-23T01:57:02;29.3;;;17.3;;
68319;SDS011;55168;51.120;17.024;2023-02-23T01:58:05;29.3;;;17.3;;
68319;SDS011;55168;51.120;17.024;2023-02-23T01:59:04;28.5;;;17.7;;
68319;SDS011;55168;51.120;17.024;2023-02-23T02:00:00;28.5;;;17.7;;
68319;SDS011;55168;51.120;17.024;2023-02-23T02:01:00;28.5;;;17.7;;
68319;SDS011;55168;51.120;17.024;2023-02-23T02:02:00;28.5;;;17.7;;
68319;SDS011;55168;51.120;17.024;2023-02-23T02:03:01;28.5;;;17.7;;
68319;SDS011;55168;51.120;17.024;2023-02-23T02:04:02;30.4;;;16.9;;
68319;SDS011;55168;51.120;17.024;2023-02-23T02:05:02;30.4;;;16.9;;
68319;SDS011;55168;51.120;17.024;2023-02-23T02:06:02;30.4;;;16.9;;
68319;SDS011;55168;51.120;17.024;2023-02-23T02:07:00;30.4;;;16.9;;
68319;SDS011;55168;51.120;17.024;2023-02-23T02:08:00;30.4;;;16.9;;
68319;SDS011;55168;51.120;17.024;2023-02-23T02:09:06;30.5;;;16.8;;
68319;SDS011;55168;51.120;17.024;2023-02-23T02:10:00;30.5;;;16.8;;
68319;SDS011;55168;51.120;17.024;2023-02-23T02:11:00;30.5;;;16.8;;
68319;SDS011;55168;51.120;17.024;2023-02-23T02:12:00;30.5;;;16.8;;
68319;SDS011;55168;51.120;17.024;2023-02-23T02:13:00;30.5;;;16.8;;
68319;SDS011;55168;51.120;17.024;2023-02-23T02:14:04;30.1;;;16.4;;
68319;SDS011;55168;51.120;17.024;2023-02-23T02:15:01;30.1;;;16.4;;
68319;SDS011;55168;51.120;17.024;2023-02-23T02:16:16;30.1;;;16.4;;
68319;SDS011;55168;51.120;17.024;2023-02-23T02:17:14;30.1;;;16.4;;
68319;SDS011;55168;51.120;17.024;2023-02-23T02:20:29;25.7;;;17.5;;
68319;SDS011;55168;51.120;17.024;2023-02-23T02:21:13;25.7;;;17.5;;
68319;SDS011;55168;51.120;17.024;2023-02-23T02:22:11;25.7;;;17.5;;
68319;SDS011;55168;51.120;17.024;2023-02-23T02:24:15;25.2;;;17.7;;
68319;SDS011;55168;51.120;17.024;2023-02-23T02:25:18;25.2;;;17.7;;
68319;SDS011;55168;51.120;17.024;2023-02-23T02:27:09;25.2;;;17.7;;
68319;SDS011;55168;51.120;17.024;2023-02-23T02:28:26;25.2;;;17.7;;
68319;SDS011;55168;51.120;17.024;2023-02-23T02:29:10;27.7;;;17.2;;
68319;SDS011;55168;51.120;17.024;2023-02-23T02:30:12;27.7;;;17.2;;
68319;SDS011;55168;51.120;17.024;2023-02-23T02:32:10;27.7;;;17.2;;
68319;SDS011;55168;51.120;17.024;2023-02-23T02:33:08;27.7;;;17.2;;
68319;SDS011;55168;51.120;17.024;2023-02-23T02:34:13;30.9;;;18.4;;
68319;SDS011;55168;51.120;17.024;2023-02-23T02:38:07;30.9;;;18.4;;
68319;SDS011;55168;51.120;17.024;2023-02-23T02:39:10;29.9;;;17.6;;
68319;SDS011;55168;51.120;17.024;2023-02-23T02:40:07;29.9;;;17.6;;
68319;SDS011;55168;51.120;17.024;2023-02-23T02:41:04;29.9;;;17.6;;
68319;SDS011;55168;51.120;17.024;2023-02-23T02:44:18;31.2;;;17.0;;
68319;SDS011;55168;51.120;17.024;2023-02-23T02:46:09;31.2;;;17.0;;
68319;SDS011;55168;51.120;17.024;2023-02-23T02:47:06;31.2;;;17.0;;
68319;SDS011;55168;51.120;17.024;2023-02-23T02:49:14;31.6;;;17.8;;
68319;SDS011;55168;51.120;17.024;2023-02-23T02:50:08;31.6;;;17.8;;
68319;SDS011;55168;51.120;17.024;2023-02-23T02:51:06;31.6;;;17.8;;
68319;SDS011;55168;51.120;17.024;2023-02-23T02:52:05;31.6;;;17.8;;
68319;SDS011;55168;51.120;17.024;2023-02-23T02:53:03;31.6;;;17.8;;
68319;SDS011;55168;51.120;17.024;2023-02-23T02:54:17;32.7;;;18.3;;
68319;SDS011;55168;51.120;17.024;2023-02-23T02:55:05;32.7;;;18.3;;
68319;SDS011;55168;51.120;17.024;2023-02-23T02:56:01;32.7;;;18.3;;
68319;SDS011;55168;51.120;17.024;2023-02-23T02:57:01;32.7;;;18.3;;
68319;SDS011;55168;51.120;17.024;2023-02-23T02:58:01;32.7;;;18.3;;
68319;SDS011;55168;51.120;17.024;2023-02-23T02:59:01;31.0;;;17.9;;
68319;SDS011;55168;51.120;17.024;2023-02-23T03:00:00;31.0;;;17.9;;
68319;SDS011;55168;51.120;17.024;2023-02-23T03:01:12;31.0;;;17.9;;
68319;SDS011;55168;51.120;17.024;2023-02-23T03:02:02;31.0;;;17.9;;
68319;SDS011;55168;51.120;17.024;2023-02-23T03:03:00;31.0;;;17.9;;
68319;SDS011;55168;51.120;17.024;2023-02-23T03:04:03;32.5;;;18.5;;
68319;SDS011;55168;51.120;17.024;2023-02-23T03:05:00;32.5;;;18.5;;
68319;SDS011;55168;51.120;17.024;2023-02-23T03:06:00;32.5;;;18.5;;
68319;SDS011;55168;51.120;17.024;2023-02-23T03:07:03;32.5;;;18.5;;
68319;SDS011;55168;51.120;17.024;2023-02-23T03:08:08;32.5;;;18.5;;
68319;SDS011;55168;51.120;17.024;2023-02-23T03:10:08;31.5;;;18.6;;
68319;SDS011;55168;51.120;17.024;2023-02-23T03:11:03;31.5;;;18.6;;
68319;SDS011;55168;51.120;17.024;2023-02-23T03:12:07;31.5;;;18.6;;
68319;SDS011;55168;51.120;17.024;2023-02-23T03:14:21;30.3;;;17.2;;
68319;SDS011;55168;51.120;17.024;2023-02-23T03:16:08;30.3;;;17.2;;
68319;SDS011;55168;51.120;17.024;2023-02-23T03:18:11;30.3;;;17.2;;
68319;SDS011;55168;51.120;17.024;2023-02-23T03:20:27;36.3;;;19.9;;
68319;SDS011;55168;51.120;17.024;2023-02-23T03:21:05;36.3;;;19.9;;
68319;SDS011;55168;51.120;17.024;2023-02-23T03:24:14;30.7;;;18.1;;
68319;SDS011;55168;51.120;17.024;2023-02-23T03:25:09;30.7;;;18.1;;
68319;SDS011;55168;51.120;17.024;2023-02-23T03:26:16;30.7;;;18.1;;
68319;SDS011;55168;51.120;17.024;2023-02-23T03:27:04;30.7;;;18.1;;
68319;SDS011;55168;51.120;17.024;2023-02-23T03:29:07;33.0;;;18.9;;
68319;SDS011;55168;51.120;17.024;2023-02-23T03:30:06;33.0;;;18.9;;
68319;SDS011;55168;51.120;17.024;2023-02-23T03:32:09;33.0;;;18.9;;
68319;SDS011;55168;51.120;17.024;2023-02-23T03:33:09;33.0;;;18.9;;
68319;SDS011;55168;51.120;17.024;2023-02-23T03:34:13;33.0;;;18.7;;
68319;SDS011;55168;51.120;17.024;2023-02-23T03:36:05;33.0;;;18.7;;
68319;SDS011;55168;51.120;17.024;2023-02-23T03:37:05;33.0;;;18.7;;
68319;SDS011;55168;51.120;17.024;2023-02-23T03:38:05;33.0;;;18.7;;
68319;SDS011;55168;51.120;17.024;2023-02-23T03:39:11;34.5;;;20.1;;
68319;SDS011;55168;51.120;17.024;2023-02-23T03:40:06;34.5;;;20.1;;
68319;SDS011;55168;51.120;17.024;2023-02-23T03:41:01;34.5;;;20.1;;
68319;SDS011;55168;51.120;17.024;2023-02-23T03:42:03;34.5;;;20.1;;
68319;SDS011;55168;51.120;17.024;2023-02-23T03:43:03;34.5;;;20.1;;
68319;SDS011;55168;51.120;17.024;2023-02-23T03:44:07;33.3;;;20.3;;
68319;SDS011;55168;51.120;17.024;2023-02-23T03:45:04;33.3;;;20.3;;
68319;SDS011;55168;51.120;17.024;2023-02-23T03:46:02;33.3;;;20.3;;
68319;SDS011;55168;51.120;17.024;2023-02-23T03:47:02;33.3;;;20.3;;
68319;SDS011;55168;51.120;17.024;2023-02-23T03:48:02;33.3;;;20.3;;
68319;SDS011;55168;51.120;17.024;2023-02-23T03:49:03;35.8;;;19.8;;
68319;SDS011;55168;51.120;17.024;2023-02-23T03:50:03;35.8;;;19.8;;
68319;SDS011;55168;51.120;17.024;2023-02-23T03:51:04;35.8;;;19.8;;
68319;SDS011;55168;51.120;17.024;2023-02-23T03:52:06;35.8;;;19.8;;
68319;SDS011;55168;51.120;17.024;2023-02-23T03:53:02;35.8;;;19.8;;
68319;SDS011;55168;51.120;17.024;2023-02-23T03:54:07;32.8;;;20.1;;
68319;SDS011;55168;51.120;17.024;2023-02-23T03:55:04;32.8;;;20.1;;
68319;SDS011;55168;51.120;17.024;2023-02-23T03:56:01;32.8;;;20.1;;
68319;SDS011;55168;51.120;17.024;2023-02-23T03:57:02;32.8;;;20.1;;
68319;SDS011;55168;51.120;17.024;2023-02-23T03:58:01;32.8;;;20.1;;
68319;SDS011;55168;51.120;17.024;2023-02-23T03:59:02;33.9;;;20.2;;
68319;SDS011;55168;51.120;17.024;2023-02-23T04:00:02;33.9;;;20.2;;
68319;SDS011;55168;51.120;17.024;2023-02-23T04:01:03;33.9;;;20.2;;
68319;SDS011;55168;51.120;17.024;2023-02-23T04:02:01;33.9;;;20.2;;
68319;SDS011;55168;51.120;17.024;2023-02-23T04:03:02;33.9;;;20.2;;
68319;SDS011;55168;51.120;17.024;2023-02-23T04:04:02;37.9;;;22.1;;
68319;SDS011;55168;51.120;17.024;2023-02-23T04:05:04;37.9;;;22.1;;
68319;SDS011;55168;51.120;17.024;2023-02-23T04:06:02;37.9;;;22.1;;
68319;SDS011;55168;51.120;17.024;2023-02-23T04:07:01;37.9;;;22.1;;
68319;SDS011;55168;51.120;17.024;2023-02-23T04:08:03;37.9;;;22.1;;
68319;SDS011;55168;51.120;17.024;2023-02-23T04:09:02;35.7;;;20.7;;
68319;SDS011;55168;51.120;17.024;2023-02-23T04:10:00;35.7;;;20.7;;
68319;SDS011;55168;51.120;17.024;2023-02-23T04:11:06;35.7;;;20.7;;
68319;SDS011;55168;51.120;17.024;2023-02-23T04:12:08;35.7;;;20.7;;
68319;SDS011;55168;51.120;17.024;2023-02-23T04:13:11;35.7;;;20.7;;
68319;SDS011;55168;51.120;17.024;2023-02-23T04:14:03;31.7;;;19.6;;
68319;SDS011;55168;51.120;17.024;2023-02-23T04:15:09;31.7;;;19.6;;
68319;SDS011;55168;51.120;17.024;2023-02-23T04:16:04;31.7;;;19.6;;
68319;SDS011;55168;51.120;17.024;2023-02-23T04:17:01;31.7;;;19.6;;
68319;SDS011;55168;51.120;17.024;2023-02-23T04:18:02;31.7;;;19.6;;
68319;SDS011;55168;51.120;17.024;2023-02-23T04:19:00;37.8;;;21.9;;
68319;SDS011;55168;51.120;17.024;2023-02-23T04:20:00;37.8;;;21.9;;
68319;SDS011;55168;51.120;17.024;2023-02-23T04:21:00;37.8;;;21.9;;
68319;SDS011;55168;51.120;17.024;2023-02-23T04:22:00;37.8;;;21.9;;
68319;SDS011;55168;51.120;17.024;2023-02-23T04:23:00;37.8;;;21.9;;
68319;SDS011;55168;51.120;17.024;2023-02-23T04:24:00;33.7;;;21.1;;
68319;SDS011;55168;51.120;17.024;2023-02-23T04:25:00;33.7;;;21.1;;
68319;SDS011;55168;51.120;17.024;2023-02-23T04:26:00;33.7;;;21.1;;
68319;SDS011;55168;51.120;17.024;2023-02-23T04:27:00;33.7;;;21.1;;
68319;SDS011;55168;51.120;17.024;2023-02-23T04:28:00;33.7;;;21.1;;
68319;SDS011;55168;51.120;17.024;2023-02-23T04:29:00;34.8;;;20.8;;
68319;SDS011;55168;51.120;17.024;2023-02-23T04:30:00;34.8;;;20.8;;
68319;SDS011;55168;51.120;17.024;2023-02-23T04:31:00;34.8;;;20.8;;
68319;SDS011;55168;51.120;17.024;2023-02-23T04:32:00;34.8;;;20.8;;
68319;SDS011;55168;51.120;17.024;2023-02-23T04:33:00;34.8;;;20.8;;
68319;SDS011;55168;51.120;17.024;2023-02-23T04:34:00;41.8;;;24.0;;
68319;SDS011;55168;51.120;17.024;2023-02-23T04:35:00;41.8;;;24.0;;
68319;SDS011;55168;51.120;17.024;2023-02-23T04:36:00;41.8;;;24.0;;
68319;SDS011;55168;51.120;17.024;2023-02-23T04:37:00;41.8;;;24.0;;
68319;SDS011;55168;51.120;17.024;2023-02-23T04:38:00;41.8;;;24.0;;
68319;SDS011;55168;51.120;17.024;2023-02-23T04:39:00;40.6;;;22.5;;
68319;SDS011;55168;51.120;17.024;2023-02-23T04:40:00;40.6;;;22.5;;
68319;SDS011;55168;51.120;17.024;2023-02-23T04:41:00;40.6;;;22.5;;
68319;SDS011;55168;51.120;17.024;2023-02-23T04:42:00;40.6;;;22.5;;
68319;SDS011;55168;51.120;17.024;2023-02-23T04:43:00;40.6;;;22.5;;
68319;SDS011;55168;51.120;17.024;2023-02-23T04:44:00;44.1;;;24.7;;
68319;SDS011;55168;51.120;17.024;2023-02-23T04:45:00;44.1;;;24.7;;
68319;SDS011;55168;51.120;17.024;2023-02-23T04:46:00;44.1;;;24.7;;
68319;SDS011;55168;51.120;17.024;2023-02-23T04:47:00;44.1;;;24.7;;
68319;SDS011;55168;51.120;17.024;2023-02-23T04:48:00;44.1;;;24.7;;
68319;SDS011;55168;51.120;17.024;2023-02-23T04:49:00;39.0;;;22.6;;
68319;SDS011;55168;51.120;17.024;2023-02-23T04:50:00;39.0;;;22.6;;
68319;SDS011;55168;51.120;17.024;2023-02-23T04:51:00;39.0;;;22.6;;
68319;SDS011;55168;51.120;17.024;2023-02-23T04:52:00;39.0;;;22.6;;
68319;SDS011;55168;51.120;17.024;2023-02-23T04:53:00;39.0;;;22.6;;
68319;SDS011;55168;51.120;17.024;2023-02-23T04:54:00;41.1;;;23.5;;
68319;SDS011;55168;51.120;17.024;2023-02-23T04:55:00;41.1;;;23.5;;
68319;SDS011;55168;51.120;17.024;2023-02-23T04:56:00;41.1;;;23.5;;
68319;SDS011;55168;51.120;17.024;2023-02-23T04:57:00;41.1;;;23.5;;
68319;SDS011;55168;51.120;17.024;2023-02-23T04:58:01;41.1;;;23.5;;
68319;SDS011;55168;51.120;17.024;2023-02-23T04:59:00;42.1;;;25.2;;
68319;SDS011;55168;51.120;17.024;2023-02-23T05:00:00;42.1;;;25.2;;
68319;SDS011;55168;51.120;17.024;2023-02-23T05:01:04;42.1;;;25.2;;
68319;SDS011;55168;51.120;17.024;2023-02-23T05:02:00;42.1;;;25.2;;
68319;SDS011;55168;51.120;17.024;2023-02-23T05:03:00;42.1;;;25.2;;
68319;SDS011;55168;51.120;17.024;2023-02-23T05:04:00;44.8;;;25.0;;
68319;SDS011;55168;51.120;17.024;2023-02-23T05:05:00;44.8;;;25.0;;
68319;SDS011;55168;51.120;17.024;2023-02-23T05:06:00;44.8;;;25.0;;
68319;SDS011;55168;51.120;17.024;2023-02-23T05:07:00;44.8;;;25.0;;
68319;SDS011;55168;51.120;17.024;2023-02-23T05:08:00;44.8;;;25.0;;
68319;SDS011;55168;51.120;17.024;2023-02-23T05:09:00;44.1;;;25.7;;
68319;SDS011;55168;51.120;17.024;2023-02-23T05:10:00;44.1;;;25.7;;
68319;SDS011;55168;51.120;17.024;2023-02-23T05:11:00;44.1;;;25.7;;
68319;SDS011;55168;51.120;17.024;2023-02-23T05:12:00;44.1;;;25.7;;
68319;SDS011;55168;51.120;17.024;2023-02-23T05:13:00;44.1;;;25.7;;
68319;SDS011;55168;51.120;17.024;2023-02-23T05:14:00;45.5;;;26.5;;
68319;SDS011;55168;51.120;17.024;2023-02-23T05:15:00;45.5;;;26.5;;
68319;SDS011;55168;51.120;17.024;2023-02-23T05:16:00;45.5;;;26.5;;
68319;SDS011;55168;51.120;17.024;2023-02-23T05:17:00;45.5;;;26.5;;
68319;SDS011;55168;51.120;17.024;2023-02-23T05:18:00;45.5;;;26.5;;
68319;SDS011;55168;51.120;17.024;2023-02-23T05:19:00;44.3;;;26.3;;
68319;SDS011;55168;51.120;17.024;2023-02-23T05:20:00;44.3;;;26.3;;
68319;SDS011;55168;51.120;17.024;2023-02-23T05:21:03;44.3;;;26.3;;
68319;SDS011;55168;51.120;17.024;2023-02-23T05:22:00;44.3;;;26.3;;
68319;SDS011;55168;51.120;17.024;2023-02-23T05:23:00;44.3;;;26.3;;
68319;SDS011;55168;51.120;17.024;2023-02-23T05:24:00;47.0;;;27.4;;
68319;SDS011;55168;51.120;17.024;2023-02-23T05:25:00;47.0;;;27.4;;
68319;SDS011;55168;51.120;17.024;2023-02-23T05:26:03;47.0;;;27.4;;
68319;SDS011;55168;51.120;17.024;2023-02-23T05:27:00;47.0;;;27.4;;
68319;SDS011;55168;51.120;17.024;2023-02-23T05:28:00;47.0;;;27.4;;
68319;SDS011;55168;51.120;17.024;2023-02-23T05:29:00;45.1;;;26.9;;
68319;SDS011;55168;51.120;17.024;2023-02-23T05:30:00;45.1;;;26.9;;
68319;SDS011;55168;51.120;17.024;2023-02-23T05:31:01;45.1;;;26.9;;
68319;SDS011;55168;51.120;17.024;2023-02-23T05:32:00;45.1;;;26.9;;
68319;SDS011;55168;51.120;17.024;2023-02-23T05:33:00;45.1;;;26.9;;
68319;SDS011;55168;51.120;17.024;2023-02-23T05:34:00;47.7;;;27.5;;
68319;SDS011;55168;51.120;17.024;2023-02-23T05:35:00;47.7;;;27.5;;
68319;SDS011;55168;51.120;17.024;2023-02-23T05:36:03;47.7;;;27.5;;
68319;SDS011;55168;51.120;17.024;2023-02-23T05:37:00;47.7;;;27.5;;
68319;SDS011;55168;51.120;17.024;2023-02-23T05:38:00;47.7;;;27.5;;
68319;SDS011;55168;51.120;17.024;2023-02-23T05:39:00;45.7;;;27.5;;
68319;SDS011;55168;51.120;17.024;2023-02-23T05:40:00;45.7;;;27.5;;
68319;SDS011;55168;51.120;17.024;2023-02-23T05:41:03;45.7;;;27.5;;
68319;SDS011;55168;51.120;17.024;2023-02-23T05:42:00;45.7;;;27.5;;
68319;SDS011;55168;51.120;17.024;2023-02-23T05:43:00;45.7;;;27.5;;
68319;SDS011;55168;51.120;17.024;2023-02-23T05:44:01;47.9;;;28.5;;
68319;SDS011;55168;51.120;17.024;2023-02-23T05:45:00;47.9;;;28.5;;
68319;SDS011;55168;51.120;17.024;2023-02-23T05:46:00;47.9;;;28.5;;
68319;SDS011;55168;51.120;17.024;2023-02-23T05:47:00;47.9;;;28.5;;
68319;SDS011;55168;51.120;17.024;2023-02-23T05:48:00;47.9;;;28.5;;
68319;SDS011;55168;51.120;17.024;2023-02-23T05:49:00;45.5;;;27.3;;
68319;SDS011;55168;51.120;17.024;2023-02-23T05:50:00;45.5;;;27.3;;
68319;SDS011;55168;51.120;17.024;2023-02-23T05:51:02;45.5;;;27.3;;
68319;SDS011;55168;51.120;17.024;2023-02-23T05:52:00;45.5;;;27.3;;
68319;SDS011;55168;51.120;17.024;2023-02-23T05:53:00;45.5;;;27.3;;
68319;SDS011;55168;51.120;17.024;2023-02-23T05:54:00;46.0;;;26.0;;
68319;SDS011;55168;51.120;17.024;2023-02-23T05:55:00;46.0;;;26.0;;
68319;SDS011;55168;51.120;17.024;2023-02-23T05:56:01;46.0;;;26.0;;
68319;SDS011;55168;51.120;17.024;2023-02-23T05:57:00;46.0;;;26.0;;
68319;SDS011;55168;51.120;17.024;2023-02-23T05:58:00;46.0;;;26.0;;
68319;SDS011;55168;51.120;17.024;2023-02-23T05:59:00;45.0;;;27.1;;
68319;SDS011;55168;51.120;17.024;2023-02-23T06:00:00;45.0;;;27.1;;
68319;SDS011;55168;51.120;17.024;2023-02-23T06:01:00;45.0;;;27.1;;
68319;SDS011;55168;51.120;17.024;2023-02-23T06:02:00;45.0;;;27.1;;
68319;SDS011;55168;51.120;17.024;2023-02-23T06:03:00;45.0;;;27.1;;
68319;SDS011;55168;51.120;17.024;2023-02-23T06:04:00;43.8;;;26.3;;
68319;SDS011;55168;51.120;17.024;2023-02-23T06:05:00;43.8;;;26.3;;
68319;SDS011;55168;51.120;17.024;2023-02-23T06:06:00;43.8;;;26.3;;
68319;SDS011;55168;51.120;17.024;2023-02-23T06:07:00;43.8;;;26.3;;
68319;SDS011;55168;51.120;17.024;2023-02-23T06:08:00;43.8;;;26.3;;
68319;SDS011;55168;51.120;17.024;2023-02-23T06:09:00;43.3;;;27.2;;
68319;SDS011;55168;51.120;17.024;2023-02-23T06:10:00;43.3;;;27.2;;
68319;SDS011;55168;51.120;17.024;2023-02-23T06:11:00;43.3;;;27.2;;
68319;SDS011;55168;51.120;17.024;2023-02-23T06:12:00;43.3;;;27.2;;
68319;SDS011;55168;51.120;17.024;2023-02-23T06:13:00;43.3;;;27.2;;
68319;SDS011;55168;51.120;17.024;2023-02-23T06:14:00;49.9;;;29.1;;
68319;SDS011;55168;51.120;17.024;2023-02-23T06:15:00;49.9;;;29.1;;
68319;SDS011;55168;51.120;17.024;2023-02-23T06:16:00;49.9;;;29.1;;
68319;SDS011;55168;51.120;17.024;2023-02-23T06:17:00;49.9;;;29.1;;